Time,TemperatureF,DewpointF,PressureIn,WindDirection,WindDirectionDegrees,WindSpeedMPH,WindSpeedGustMPH,Humidity,HourlyPrecipIn,Conditions,Clouds,dailyrainin,SoftwareType,DateUTC
2017-12-14 00:04:00,37.8,27.4,29.61,NW,305,6.3,7.6,66,0.00,,---,0.00,VWS V15.00,2017-12-14 05:04:00,
2017-12-14 00:09:00,37.6,27.3,29.61,WNW,290,5.8,6.3,66,0.00,,---,0.00,VWS V15.00,2017-12-14 05:09:00,
2017-12-14 00:10:00,37.6,27.3,28.73,NW,315,9.6,9.6,66,0.00,,---,0.00,VWS V15.00,2017-12-14 05:10:00,
2017-12-14 00:19:00,37.4,27.1,29.64,WNW,298,5.4,8.3,66,0.00,,---,0.00,VWS V15.00,2017-12-14 05:19:00,
2017-12-14 00:24:00,37.0,27.1,29.64,WNW,299,8.1,10.1,67,0.00,,---,0.00,VWS V15.00,2017-12-14 05:24:00,
2017-12-14 00:29:00,37.0,27.1,29.61,NW,322,8.1,8.1,67,0.00,,---,0.00,VWS V15.00,2017-12-14 05:29:00,
2017-12-14 00:34:00,36.9,26.9,29.61,West,275,6.3,11.0,67,0.00,,---,0.00,VWS V15.00,2017-12-14 05:34:00,
2017-12-14 00:39:00,36.9,26.9,29.61,WNW,289,8.3,8.3,67,0.00,,---,0.00,VWS V15.00,2017-12-14 05:39:00,
2017-12-14 00:44:00,36.7,26.8,29.64,WNW,286,10.1,14.1,67,0.00,,---,0.00,VWS V15.00,2017-12-14 05:44:00,
2017-12-14 00:49:00,36.3,26.4,29.64,NW,318,6.3,8.3,67,0.00,,---,0.00,VWS V15.00,2017-12-14 05:49:00,
2017-12-14 00:53:00,36.1,26.3,28.76,NW,306,6.7,6.7,67,0.00,,---,0.00,VWS V15.00,2017-12-14 05:53:00,
2017-12-14 00:58:00,35.8,25.9,29.67,NW,308,5.8,8.7,67,0.00,,---,0.00,VWS V15.00,2017-12-14 05:58:00,
2017-12-14 01:03:00,35.6,25.7,29.67,WNW,283,2.7,5.4,67,0.00,,---,0.00,VWS V15.00,2017-12-14 06:03:00,
2017-12-14 01:08:00,35.4,25.6,29.67,West,281,6.3,6.3,67,0.00,,---,0.00,VWS V15.00,2017-12-14 06:08:00,
2017-12-14 01:13:00,35.2,25.4,29.67,NW,308,6.3,6.3,67,0.00,,---,0.00,VWS V15.00,2017-12-14 06:13:00,
2017-12-14 01:20:00,34.9,25.0,28.79,NW,306,7.6,8.3,67,0.00,,---,0.00,VWS V15.00,2017-12-14 06:20:00,
2017-12-14 01:23:00,34.7,24.9,29.67,NNW,332,8.3,8.3,67,0.00,,---,0.00,VWS V15.00,2017-12-14 06:23:00,
2017-12-14 01:33:00,34.3,24.5,29.67,WNW,291,6.3,9.6,67,0.00,,---,0.00,VWS V15.00,2017-12-14 06:33:00,
2017-12-14 01:38:00,34.2,24.4,29.67,NW,318,8.1,8.1,67,0.00,,---,0.00,VWS V15.00,2017-12-14 06:38:00,
2017-12-14 01:43:00,33.8,24.0,29.70,NNW,336,5.4,5.8,67,0.00,,---,0.00,VWS V15.00,2017-12-14 06:43:00,
2017-12-14 01:53:00,33.4,24.0,29.70,North,350,5.4,8.7,68,0.00,,---,0.00,VWS V15.00,2017-12-14 06:53:00,
2017-12-14 01:58:00,33.1,23.7,29.70,NW,307,8.3,8.3,68,0.00,,---,0.00,VWS V15.00,2017-12-14 06:58:00,
2017-12-14 02:04:00,32.9,23.5,29.70,NNW,333,4.0,6.7,68,0.00,,---,0.00,VWS V15.00,2017-12-14 07:04:00,
2017-12-14 02:09:00,32.5,23.2,29.70,NW,305,5.4,7.6,68,0.00,,---,0.43,VWS V15.00,2017-12-14 07:09:00,
2017-12-14 02:12:00,32.5,23.2,28.85,WNW,301,7.2,7.2,68,0.00,,---,0.00,VWS V15.00,2017-12-14 07:12:00,
2017-12-14 02:15:00,32.5,23.2,29.73,NW,319,5.8,5.8,68,0.00,,---,0.00,VWS V15.00,2017-12-14 07:15:00,
2017-12-14 02:20:00,32.4,23.0,29.73,North,0,5.8,5.8,68,0.00,,---,0.00,VWS V15.00,2017-12-14 07:20:00,
2017-12-14 02:30:00,32.4,23.0,29.73,NNW,329,2.7,5.4,68,0.00,,---,0.00,VWS V15.00,2017-12-14 07:30:00,
2017-12-14 02:32:00,32.2,22.8,28.85,NNW,327,3.1,3.1,68,0.00,,---,0.00,VWS V15.00,2017-12-14 07:32:00,
2017-12-14 02:35:00,32.2,22.8,29.73,WNW,293,5.4,6.3,68,0.00,,---,0.00,VWS V15.00,2017-12-14 07:35:00,
2017-12-14 02:40:00,32.0,22.6,28.85,NW,305,4.0,5.8,68,0.00,,---,0.00,VWS V15.00,2017-12-14 07:40:00,
2017-12-14 02:48:00,31.8,22.5,28.85,NNW,338,3.1,4.5,68,0.00,,---,0.00,VWS V15.00,2017-12-14 07:48:00,
2017-12-14 02:51:00,31.6,22.3,29.73,NW,326,5.4,6.3,68,0.00,,---,0.00,VWS V15.00,2017-12-14 07:51:00,
2017-12-14 02:56:00,31.6,22.3,29.73,NNW,337,0.0,2.7,68,0.00,,---,0.00,VWS V15.00,2017-12-14 07:56:00,
2017-12-14 03:01:00,31.5,22.1,29.76,NW,313,4.9,6.7,68,0.00,,---,0.00,VWS V15.00,2017-12-14 08:01:00,
2017-12-14 03:03:00,31.5,22.1,28.88,NW,304,3.6,4.5,68,0.00,,---,0.00,VWS V15.00,2017-12-14 08:03:00,
2017-12-14 03:07:00,31.1,21.8,28.88,NW,316,8.1,8.1,68,0.00,,---,0.00,VWS V15.00,2017-12-14 08:07:00,
2017-12-14 03:12:00,31.1,21.8,29.76,NNW,331,6.7,7.2,68,0.00,,---,0.00,VWS V15.00,2017-12-14 08:12:00,
2017-12-14 03:27:00,30.7,21.4,29.79,WNW,297,6.3,8.3,68,0.00,,---,0.00,VWS V15.00,2017-12-14 08:27:00,
2017-12-14 03:30:00,30.7,21.4,28.91,NW,310,4.9,4.9,68,0.00,,---,0.00,VWS V15.00,2017-12-14 08:30:00,
2017-12-14 03:35:00,30.6,21.3,29.79,West,271,7.6,7.6,68,0.00,,---,0.00,VWS V15.00,2017-12-14 08:35:00,
2017-12-14 03:40:00,30.6,21.3,29.79,NNW,331,3.1,4.0,68,0.00,,---,0.00,VWS V15.00,2017-12-14 08:40:00,
2017-12-14 03:45:00,30.4,21.1,29.79,WNW,302,6.3,6.3,68,0.00,,---,0.00,VWS V15.00,2017-12-14 08:45:00,
2017-12-14 03:49:00,30.2,20.9,28.91,NNW,327,7.6,8.3,68,0.00,,---,0.00,VWS V15.00,2017-12-14 08:49:00,
2017-12-14 03:50:00,30.2,20.9,29.79,WNW,288,5.8,5.8,68,0.00,,---,0.00,VWS V15.00,2017-12-14 08:50:00,
2017-12-14 03:55:00,30.2,20.9,29.79,North,357,5.8,6.3,68,0.00,,---,0.00,VWS V15.00,2017-12-14 08:55:00,
2017-12-14 04:00:00,30.0,20.8,29.82,NW,315,4.0,4.0,68,0.00,,---,0.00,VWS V15.00,2017-12-14 09:00:00,
2017-12-14 04:05:00,30.0,20.8,29.82,NW,320,5.8,5.8,68,0.00,,---,0.00,VWS V15.00,2017-12-14 09:05:00,
2017-12-14 04:10:00,30.0,20.8,29.82,WNW,302,7.6,7.6,68,0.00,,---,0.00,VWS V15.00,2017-12-14 09:10:00,
2017-12-14 04:15:00,29.8,20.6,29.82,NNW,344,3.6,5.8,68,0.00,,---,0.00,VWS V15.00,2017-12-14 09:15:00,
2017-12-14 04:19:00,29.8,20.6,28.94,NNW,342,0.0,3.6,68,0.00,,---,0.00,VWS V15.00,2017-12-14 09:19:00,
2017-12-14 04:20:00,29.8,20.6,29.82,NNW,342,5.8,6.3,68,0.00,,---,0.00,VWS V15.00,2017-12-14 09:20:00,
2017-12-14 04:25:00,29.7,20.4,29.82,NW,315,3.1,5.4,68,0.00,,---,0.00,VWS V15.00,2017-12-14 09:25:00,
2017-12-14 04:27:00,29.7,20.4,29.82,NNW,335,5.4,7.2,68,0.00,,---,0.00,VWS V15.00,2017-12-14 09:27:00,
2017-12-14 04:29:00,29.7,20.4,28.94,NW,318,8.7,8.7,68,0.00,,---,0.00,VWS V15.00,2017-12-14 09:29:00,
2017-12-14 04:32:00,29.5,20.2,29.82,WNW,292,8.7,8.7,68,0.00,,---,0.00,VWS V15.00,2017-12-14 09:32:00,
2017-12-14 04:37:00,29.5,20.2,29.82,NW,306,5.4,5.8,68,0.00,,---,0.00,VWS V15.00,2017-12-14 09:37:00,
2017-12-14 04:42:00,29.5,20.2,29.82,NNW,343,4.0,4.0,68,0.00,,---,0.00,VWS V15.00,2017-12-14 09:42:00,
2017-12-14 04:43:00,29.5,20.2,28.94,North,350,5.4,5.4,68,0.00,,---,0.00,VWS V15.00,2017-12-14 09:43:00,
2017-12-14 04:44:00,29.5,20.2,28.94,NNW,342,3.1,5.4,68,0.00,,---,0.00,VWS V15.00,2017-12-14 09:44:00,
2017-12-14 04:49:00,29.5,20.2,29.82,NW,324,4.9,5.4,68,0.00,,---,0.00,VWS V15.00,2017-12-14 09:49:00,
2017-12-14 04:54:00,29.5,20.2,29.82,NNW,327,4.9,4.9,68,0.00,,---,0.00,VWS V15.00,2017-12-14 09:54:00,
2017-12-14 04:55:00,29.5,20.2,29.82,NW,317,4.0,4.0,68,0.00,,---,0.00,VWS V15.00,2017-12-14 09:55:00,
2017-12-14 04:59:00,29.5,20.2,28.94,NNW,332,2.7,5.4,68,0.00,,---,0.00,VWS V15.00,2017-12-14 09:59:00,
2017-12-14 05:04:00,29.5,20.2,29.82,North,0,4.0,4.0,68,0.00,,---,0.00,VWS V15.00,2017-12-14 10:04:00,
2017-12-14 05:08:00,29.5,20.2,28.94,NNW,344,0.0,2.2,68,0.00,,---,0.00,VWS V15.00,2017-12-14 10:08:00,
2017-12-14 05:09:00,29.5,20.2,29.82,NW,318,4.9,4.9,68,0.00,,---,0.00,VWS V15.00,2017-12-14 10:09:00,
2017-12-14 05:14:00,29.5,20.2,29.85,NNW,332,3.6,4.0,68,0.00,,---,0.00,VWS V15.00,2017-12-14 10:14:00,
2017-12-14 05:19:00,29.5,20.2,29.85,NW,319,0.0,2.2,68,0.00,,---,0.00,VWS V15.00,2017-12-14 10:19:00,
2017-12-14 05:20:00,29.5,20.2,29.85,North,7,4.0,6.3,68,0.00,,---,0.00,VWS V15.00,2017-12-14 10:20:00,
2017-12-14 05:25:00,29.5,20.2,29.85,North,10,5.8,8.1,68,0.00,,---,0.00,VWS V15.00,2017-12-14 10:25:00,
2017-12-14 05:30:00,29.3,20.1,29.85,North,353,4.0,7.6,68,0.00,,---,0.43,VWS V15.00,2017-12-14 10:30:00,
2017-12-14 05:35:00,29.3,20.1,29.85,North,350,4.0,4.0,68,0.00,,---,0.00,VWS V15.00,2017-12-14 10:35:00,
2017-12-14 05:41:00,29.1,19.9,29.85,NNE,12,8.1,8.1,68,0.00,,---,0.00,VWS V15.00,2017-12-14 10:41:00,
2017-12-14 05:46:00,28.4,19.2,29.88,NNE,15,6.3,8.1,68,0.00,,---,0.00,VWS V15.00,2017-12-14 10:46:00,
2017-12-14 05:49:00,27.9,18.7,29.00,NNW,335,4.9,5.8,68,0.00,,---,0.00,VWS V15.00,2017-12-14 10:49:00,
2017-12-14 05:50:00,27.9,18.7,29.00,North,353,5.4,5.4,68,0.00,,---,0.00,VWS V15.00,2017-12-14 10:50:00,
2017-12-14 05:55:00,27.5,18.3,29.88,NNE,25,2.7,5.4,68,0.00,,---,0.00,VWS V15.00,2017-12-14 10:55:00,
2017-12-14 06:00:00,27.0,17.8,29.88,NNW,346,3.6,3.6,68,0.00,,---,0.43,VWS V15.00,2017-12-14 11:00:00,
2017-12-14 06:04:00,26.6,17.8,29.00,NNW,346,5.4,7.6,69,0.00,,---,0.00,VWS V15.00,2017-12-14 11:04:00,
2017-12-14 06:05:00,26.4,17.6,29.88,North,2,5.8,8.1,69,0.00,,---,0.00,VWS V15.00,2017-12-14 11:05:00,
2017-12-14 06:10:00,26.1,17.3,29.88,North,350,6.3,6.3,69,0.00,,---,0.00,VWS V15.00,2017-12-14 11:10:00,
2017-12-14 06:15:00,25.7,17.0,29.91,NNE,17,5.8,5.8,69,0.00,,---,0.00,VWS V15.00,2017-12-14 11:15:00,
2017-12-14 06:17:00,25.7,17.0,29.03,North,0,5.8,8.1,69,0.00,,---,0.00,VWS V15.00,2017-12-14 11:17:00,
2017-12-14 06:24:00,25.3,16.6,29.91,NNW,333,3.1,3.1,69,0.00,,---,0.00,VWS V15.00,2017-12-14 11:24:00,
2017-12-14 06:29:00,25.0,16.3,29.91,North,5,3.1,5.8,69,0.00,,---,0.00,VWS V15.00,2017-12-14 11:29:00,
2017-12-14 06:34:00,24.4,15.7,29.91,NNW,334,4.0,5.4,69,0.00,,---,0.00,VWS V15.00,2017-12-14 11:34:00,
2017-12-14 06:39:00,24.3,15.6,29.91,NNE,22,5.4,6.3,69,0.00,,---,0.00,VWS V15.00,2017-12-14 11:39:00,
2017-12-14 06:42:00,24.1,15.4,29.03,NNE,19,6.3,6.3,69,0.00,,---,0.00,VWS V15.00,2017-12-14 11:42:00,
2017-12-14 06:47:00,23.9,15.2,29.91,North,7,0.0,2.7,69,0.00,,---,0.00,VWS V15.00,2017-12-14 11:47:00,
2017-12-14 06:52:00,23.5,14.9,29.91,North,357,0.0,0.0,69,0.00,,---,0.43,VWS V15.00,2017-12-14 11:52:00,
2017-12-14 06:53:00,23.5,14.9,29.03,North,357,0.0,0.0,69,0.00,,---,0.00,VWS V15.00,2017-12-14 11:53:00,
2017-12-14 06:57:00,23.5,14.9,29.06,NNE,25,0.0,0.0,69,0.00,,---,0.00,VWS V15.00,2017-12-14 11:57:00,
2017-12-14 07:02:00,23.4,14.7,29.94,NNE,25,0.0,0.0,69,0.00,,---,0.00,VWS V15.00,2017-12-14 12:02:00,
2017-12-14 07:07:00,23.4,14.7,29.94,NNW,348,0.0,0.0,69,0.00,,---,0.00,VWS V15.00,2017-12-14 12:07:00,
2017-12-14 07:09:00,23.4,14.7,29.06,NNW,348,0.0,0.0,69,0.00,,---,0.00,VWS V15.00,2017-12-14 12:09:00,
2017-12-14 07:32:00,23.4,14.7,29.94,North,4,0.0,0.0,69,0.00,,---,0.00,VWS V15.00,2017-12-14 12:32:00,
2017-12-14 07:33:00,23.4,14.7,29.06,NNW,345,0.0,0.0,69,0.00,,---,0.00,VWS V15.00,2017-12-14 12:33:00,
2017-12-14 07:37:00,23.4,14.7,29.94,North,357,0.0,0.0,69,0.00,,---,0.00,VWS V15.00,2017-12-14 12:37:00,
2017-12-14 07:39:00,23.5,14.9,29.06,NW,321,3.1,3.1,69,0.00,,---,0.00,VWS V15.00,2017-12-14 12:39:00,
2017-12-14 07:44:00,23.5,14.9,29.97,NNW,343,3.1,3.6,69,0.00,,---,0.00,VWS V15.00,2017-12-14 12:44:00,
2017-12-14 07:49:00,23.5,14.9,29.97,North,353,2.2,3.1,69,0.00,,---,0.00,VWS V15.00,2017-12-14 12:49:00,
2017-12-14 07:54:00,23.7,15.1,29.97,North,357,2.7,3.1,69,0.00,,---,0.00,VWS V15.00,2017-12-14 12:54:00,
2017-12-14 08:00:00,23.7,15.1,29.09,NNE,16,3.1,5.4,69,0.00,,---,0.00,VWS V15.00,2017-12-14 13:00:00,
2017-12-14 08:05:00,23.7,15.1,29.97,NNE,19,5.4,5.4,69,0.00,,---,0.00,VWS V15.00,2017-12-14 13:05:00,
2017-12-14 08:10:00,23.7,15.1,29.97,North,11,2.2,4.0,69,0.00,,---,0.00,VWS V15.00,2017-12-14 13:10:00,
2017-12-14 08:12:00,23.7,15.1,29.09,NNE,23,3.1,4.0,69,0.00,,---,0.00,VWS V15.00,2017-12-14 13:12:00,
2017-12-14 08:15:00,23.7,15.1,29.97,North,7,0.0,3.1,69,0.00,,---,0.00,VWS V15.00,2017-12-14 13:15:00,
2017-12-14 08:20:00,23.9,15.2,29.97,North,357,3.6,4.0,69,0.00,,---,0.00,VWS V15.00,2017-12-14 13:20:00,
2017-12-14 08:28:00,23.9,15.2,29.09,NNE,18,3.1,3.6,69,0.00,,---,0.00,VWS V15.00,2017-12-14 13:28:00,
2017-12-14 08:30:00,23.7,15.1,29.97,NNE,17,3.6,3.6,69,0.00,,---,0.00,VWS V15.00,2017-12-14 13:30:00,
2017-12-14 08:32:00,23.7,15.1,29.97,NNE,17,0.0,0.0,69,0.00,,---,0.00,VWS V15.00,2017-12-14 13:32:00,
2017-12-14 08:37:00,23.9,15.2,29.97,NNE,32,4.0,5.4,69,0.00,,---,0.00,VWS V15.00,2017-12-14 13:37:00,
2017-12-14 08:40:00,23.9,15.2,29.09,NNW,343,4.0,4.0,69,0.00,,---,0.00,VWS V15.00,2017-12-14 13:40:00,
2017-12-14 08:44:00,23.9,15.2,29.09,North,9,5.4,5.4,69,0.00,,---,0.00,VWS V15.00,2017-12-14 13:44:00,
2017-12-14 08:49:00,23.9,15.2,29.97,NNE,21,0.0,0.0,69,0.00,,---,0.00,VWS V15.00,2017-12-14 13:49:00,
2017-12-14 08:54:00,24.1,15.4,29.97,East,89,0.0,0.0,69,0.00,,---,0.00,VWS V15.00,2017-12-14 13:54:00,
2017-12-14 08:59:00,24.1,15.4,30.00,NNE,28,5.8,5.8,69,0.00,,---,0.00,VWS V15.00,2017-12-14 13:59:00,
2017-12-14 09:04:00,23.9,15.2,30.00,NNE,19,4.0,5.4,69,0.00,,---,0.00,VWS V15.00,2017-12-14 14:04:00,
2017-12-14 09:09:00,23.9,15.2,30.00,NNW,344,3.1,3.6,69,0.00,,---,0.00,VWS V15.00,2017-12-14 14:09:00,
2017-12-14 09:14:00,23.9,15.2,30.00,North,353,3.1,3.1,69,0.00,,---,0.00,VWS V15.00,2017-12-14 14:14:00,
2017-12-14 09:19:00,23.9,15.2,30.00,North,357,2.7,3.6,69,0.00,,---,0.00,VWS V15.00,2017-12-14 14:19:00,
2017-12-14 09:24:00,23.9,15.2,30.00,NE,34,0.0,0.0,69,0.00,,---,0.00,VWS V15.00,2017-12-14 14:24:00,
2017-12-14 09:29:00,24.1,15.4,30.00,NE,43,0.0,0.0,69,0.00,,---,0.00,VWS V15.00,2017-12-14 14:29:00,
2017-12-14 09:34:00,24.3,15.6,30.00,NNE,25,0.0,0.0,69,0.00,,---,0.00,VWS V15.00,2017-12-14 14:34:00,
2017-12-14 09:35:00,24.3,15.6,30.00,NNE,14,0.0,0.0,69,0.00,,---,0.00,VWS V15.00,2017-12-14 14:35:00,
2017-12-14 09:40:00,24.1,15.4,30.00,ENE,69,3.1,4.0,69,0.00,,---,0.00,VWS V15.00,2017-12-14 14:40:00,
2017-12-14 09:45:00,24.1,15.4,30.00,NE,36,0.0,0.0,69,0.00,,---,0.00,VWS V15.00,2017-12-14 14:45:00,
2017-12-14 09:47:00,24.1,15.4,29.12,NE,48,2.2,2.7,69,0.00,,---,0.00,VWS V15.00,2017-12-14 14:47:00,
2017-12-14 09:52:00,24.3,15.6,30.00,NE,36,3.6,5.4,69,0.00,,---,0.00,VWS V15.00,2017-12-14 14:52:00,
2017-12-14 09:57:00,24.4,15.7,30.03,NE,47,4.0,4.0,69,0.00,,---,0.00,VWS V15.00,2017-12-14 14:57:00,
2017-12-14 10:02:00,24.3,15.6,29.15,NNE,20,4.0,4.0,69,0.00,,---,0.00,VWS V15.00,2017-12-14 15:02:00,
2017-12-14 10:03:00,24.3,15.6,30.03,NNE,31,4.9,6.7,69,0.00,,---,0.00,VWS V15.00,2017-12-14 15:03:00,
2017-12-14 10:08:00,24.1,15.4,30.03,NNE,16,5.4,5.4,69,0.00,,---,0.00,VWS V15.00,2017-12-14 15:08:00,
2017-12-14 10:13:00,24.1,15.4,30.03,NNE,28,5.8,6.3,69,0.00,,---,0.00,VWS V15.00,2017-12-14 15:13:00,
2017-12-14 10:17:00,24.1,15.4,29.15,NE,44,2.7,4.0,69,0.00,,---,0.00,VWS V15.00,2017-12-14 15:17:00,
2017-12-14 10:18:00,24.1,15.4,30.03,NE,36,5.4,5.4,69,0.00,,---,0.00,VWS V15.00,2017-12-14 15:18:00,
2017-12-14 10:23:00,23.9,15.2,30.03,NNE,24,5.4,5.8,69,0.00,,---,0.00,VWS V15.00,2017-12-14 15:23:00,
2017-12-14 10:27:00,23.9,15.2,29.15,East,79,4.0,4.0,69,0.00,,---,0.00,VWS V15.00,2017-12-14 15:27:00,
2017-12-14 10:32:00,23.9,15.2,30.03,NE,39,0.0,2.2,69,0.00,,---,0.00,VWS V15.00,2017-12-14 15:32:00,
2017-12-14 10:37:00,24.3,15.6,30.03,NNE,31,5.4,5.4,69,0.00,,---,0.00,VWS V15.00,2017-12-14 15:37:00,
2017-12-14 10:42:00,24.4,15.7,30.03,ENE,69,2.7,2.7,69,0.00,,---,0.00,VWS V15.00,2017-12-14 15:42:00,
2017-12-14 10:43:00,24.4,15.7,30.03,ENE,59,4.0,4.9,69,0.00,,---,0.00,VWS V15.00,2017-12-14 15:43:00,
2017-12-14 10:44:00,24.4,15.7,29.15,NNE,30,4.0,4.9,69,0.00,,---,0.00,VWS V15.00,2017-12-14 15:44:00,
2017-12-14 10:48:00,24.4,15.7,30.03,NE,43,0.0,0.0,69,0.00,,---,0.00,VWS V15.00,2017-12-14 15:48:00,
2017-12-14 10:53:00,24.4,15.7,30.03,North,10,4.0,4.0,69,0.00,,---,0.00,VWS V15.00,2017-12-14 15:53:00,
2017-12-14 10:58:00,24.3,15.6,30.06,North,350,0.0,0.0,69,0.00,,---,0.00,VWS V15.00,2017-12-14 15:58:00,
2017-12-14 11:03:00,24.4,15.7,30.06,NE,37,0.0,0.0,69,0.00,,---,0.00,VWS V15.00,2017-12-14 16:03:00,
2017-12-14 11:08:00,24.4,15.7,30.06,NNE,16,2.7,2.7,69,0.00,,---,0.00,VWS V15.00,2017-12-14 16:08:00,
2017-12-14 11:09:00,24.4,15.7,29.18,North,349,3.1,3.6,69,0.00,,---,0.00,VWS V15.00,2017-12-14 16:09:00,
2017-12-14 11:13:00,24.4,15.7,29.18,NNE,12,5.8,5.8,69,0.00,,---,0.00,VWS V15.00,2017-12-14 16:13:00,
2017-12-14 11:18:00,24.4,15.7,30.06,NE,49,0.0,0.0,69,0.00,,---,0.00,VWS V15.00,2017-12-14 16:18:00,
2017-12-14 11:23:00,24.6,15.9,30.06,NNE,30,0.0,0.0,69,0.00,,---,0.00,VWS V15.00,2017-12-14 16:23:00,
2017-12-14 11:28:00,24.8,16.1,30.06,NNE,12,0.0,0.0,69,0.00,,---,0.00,VWS V15.00,2017-12-14 16:28:00,
2017-12-14 11:33:00,24.8,16.1,30.06,ENE,67,4.0,4.0,69,0.00,,---,0.00,VWS V15.00,2017-12-14 16:33:00,
2017-12-14 11:38:00,25.0,16.3,30.06,NNE,21,3.6,3.6,69,0.00,,---,0.00,VWS V15.00,2017-12-14 16:38:00,
2017-12-14 11:40:00,25.0,16.3,29.18,NE,35,3.1,4.0,69,0.00,,---,0.00,VWS V15.00,2017-12-14 16:40:00,
2017-12-14 11:45:00,25.5,16.8,30.06,NNE,22,4.0,5.4,69,0.00,,---,0.00,VWS V15.00,2017-12-14 16:45:00,
2017-12-14 11:50:00,25.5,16.8,30.06,NE,39,3.6,5.8,69,0.00,,---,0.00,VWS V15.00,2017-12-14 16:50:00,
2017-12-14 11:55:00,25.7,17.0,30.06,NNE,25,5.4,5.4,69,0.00,,---,0.00,VWS V15.00,2017-12-14 16:55:00,
2017-12-14 12:00:00,25.5,16.8,30.06,NNE,21,4.0,4.0,69,0.00,,---,0.00,VWS V15.00,2017-12-14 17:00:00,
2017-12-14 12:04:00,25.2,16.4,29.18,NNE,26,8.3,8.3,69,0.00,,---,0.00,VWS V15.00,2017-12-14 17:04:00,
2017-12-14 12:05:00,25.0,16.3,30.06,NNE,18,4.0,5.8,69,0.00,,---,0.00,VWS V15.00,2017-12-14 17:05:00,
2017-12-14 12:10:00,25.3,16.6,30.06,NNE,24,4.0,4.0,69,0.00,,---,0.00,VWS V15.00,2017-12-14 17:10:00,